Aeroporto :
LOGIN :

Iscrizione | Disclaimer

   EN    FR    IT 

 










Sommario :    VFR   VFR Marginale   IFR   IFR Intensivo   IFR Molto Intensivo
Visibilità : 
Base nubi : 
>= 8 km
>= 3000ft
5 / 8 km
1000 / 3000 ft
1500m / 5 km
500 / 1000 ft
800 / 1500m
200 / 500 ft
< 800m
< 200 ft
Simboli :   Temporali  Nebbia  Neve Forte  Precipitazioni Forti  Vento > 20 kt
SIGMETs :   Varie  Temporali  Ghiacco  Turbolenza  Onda orograficha  Ceneri Vulcaniche






- Altitudine del aeroporto : 203 ft
- Codice IATA : XMJ


LFBM - Mont-De-Marsan

ULTIMO METAR :
  • 211600Z AUTO 24005KT 130V290 9999 OVC034 15/06 Q1031 NOSIG

METARs OBSOLETI :
  • 211530Z AUTO 26003KT 180V300 9999 OVC032 15/07 Q1031 NOSIG
  • 211500Z AUTO 29003KT 250V360 9999 OVC033 14/07 Q1031 NOSIG
  • 211430Z AUTO 33005KT 9999 OVC032 14/07 Q1031 NOSIG
  • 211400Z AUTO 34006KT 310V020 9999 OVC035 14/07 Q1032 NOSIG
  • 211330Z AUTO 32004KT 270V350 9999 BKN024 OVC031 13/08 Q1032 NOSIG

TAF TAF LFBM
Valido dal 21 a 15 ore il 22 a 15 ore UTC


211400Z 2115/2215 VRB02KT 9999 OVC035
TEMPO 2121/2209 3000 BCFG
PROB30
TEMPO 2200/2206 0600 FG VV///



MetMap, La meteo Aeronautica in un colpo d'occhio ! - Copyright ORBIFLY Dicembre 2007 - Disclaimer

ORBIFLY MET'MAP TEAM :

Programmazione e sviluppo : Alexandra Zaïnal
Concezione : Baudouin d'Aumeries
Aiuto per la programmazione : Marc-Olivier Méhu
Supporto tecnico e logistico : Manuel Goepfert
Aiuto per la traduzione : Arnaldo La Scala

Contatto : metmap@orbifly.com




FONTI E CREDITI :

   NOAA